Scroll down
FLIGHT INFORMATION
PMDG Flight Operations

PFO1118

At Arrival Gate

PHNL
 KSEA
DATE: 2018-11-18
GATE: A
GATE DEPARTURE: 19:13
TAKEOFF: 19:28
DATE: 2018-11-19
GATE:  -
LANDING: 00:41
GATE ARRIVAL: 00:53
FLIGHT DATA
Crew: 
Speed: 
514 kts
Altitude: 
37,043 ft
Stage Length: 
2,326.0 nm
Block Time: 
5.5 hrs
Flight Time: 
5.2 hrs
Fuel Used: 
104,887 lb
Cleared Route: MKK MAGGI TOADS APACK ZOULU ZEMOM ZINNO ZAGER ZANNG SEDAR LATAY AAYRR HAWKZ LIINE PIKEZ COFAY BREVE NETTZ KWEST VASHN
TRACK DATA
50,000 ft 1,000 kts
AIRCRAFT INFO AND CUMULATIVE STATS
Aircraft Type: 
B744F
Registration: 
SELCAL: 
MSN/LN: 
0 / 1
Total Flights: 
3
Total Block Time: 
15.4 hrs
Total Flight Time: 
14.7 hrs
Total Fuel Used: 
284,616 lb
DATALINK LOG | Newest first | Current as of: 2022-09-30 01:18:38
LABEL SEQUENCE CONTENT Dn/Up
QD534100:53 29.5▼ Dn
GA4505ADVANCED GATE ASSIGNMENTS NOT YET AVAILABLE AT THIS AIRPORT▲ Up
GR4424KSEA 35:00▼ Dn
GA4505ADVANCED GATE ASSIGNMENTS NOT YET AVAILABLE AT THIS AIRPORT▲ Up
GR4419KSEA 35:00▼ Dn
QC415100:41▼ Dn
2U1330KSEA 182353Z 29006KT 10SM CLR 11/02 A3015 RMK AO2 SLP216 T01060017 10128 20072 56008, VATSIM INJECTION▲ Up
2S1330KSEA▼ Dn
2U4319KSEA 181853Z 01004KT 10SM FEW230 09/01 A3020 RMK AO2 SLP234 T00940011, VATSIM INJECTION▲ Up
2S4319KSEA▼ Dn
QB285519:28▼ Dn
QA131919:13 134.8▼ Dn
5U0609KSEA 182305Z 01007KT 10SM SKC 09/01 A3020▲ Up
5S0609KSEA▼ Dn
2U0127PHNL 181753Z 06011KT 9SM FEW026 FEW045 SCT120 SCT200 24/18 A3007 RMK AO2 SLP183 VCSH N-E 60000 T02440183 10244 20228 53016 $▲ Up
2S0127PHNL▼ Dn


AIRCRAFT HISTORY
FLIGHT DATE FLIGHT NO. ORIGIN DESTINATION CLEARED ROUTE BLOCK TIME FLIGHT TIME FUEL USED PILOT
2018-12-11PFO1210KSEA MMMX NEVJO SUMMA4.5 hrs4.4 hrs79,403 lbKyle Weber
2018-11-18PFO1118PHNL KSEA MKK MAGGI TOADS APACK ZOULU ZEMOM ZINNO ZAGER ZANNG SEDAR LATAY AAYRR HAWKZ LIINE PIKEZ COFAY BREVE NETTZ KWEST VASHN5.5 hrs5.2 hrs104,887 lbKyle Weber
2018-07-07PFO707KLAX PHNL 5.3 hrs5.1 hrs100,325 lb-SUSPENDED-